createdAt,value
2022-08-17T00:00:01.572Z,7.20
2022-08-17T00:02:29.231Z,6.97
2022-08-17T00:04:58.018Z,6.67
2022-08-17T00:07:24.871Z,7.00
2022-08-17T00:09:51.842Z,7.50
2022-08-17T00:12:41.675Z,6.90
2022-08-17T00:15:10.754Z,5.93
2022-08-17T00:17:38.367Z,6.70
2022-08-17T00:20:06.424Z,6.30
2022-08-17T00:22:36.563Z,6.27
2022-08-17T00:25:14.146Z,6.03
2022-08-17T00:27:41.462Z,6.73
2022-08-17T00:30:11.728Z,6.47
2022-08-17T00:33:11.855Z,6.40
2022-08-17T00:35:34.957Z,6.30
2022-08-17T00:38:01.891Z,6.50
2022-08-17T00:40:40.015Z,6.10
2022-08-17T00:43:41.479Z,5.87
2022-08-17T00:46:26.403Z,6.47
2022-08-17T00:48:53.296Z,5.97
2022-08-17T00:51:44.804Z,6.47
2022-08-17T00:54:41.927Z,6.40
2022-08-17T00:57:16.509Z,6.57
2022-08-17T01:00:02.415Z,6.17
2022-08-17T01:02:42.222Z,6.20
2022-08-17T01:05:18.569Z,6.13
2022-08-17T01:07:48.114Z,5.83
2022-08-17T01:10:58.995Z,5.63
2022-08-17T01:13:05.081Z,5.97
2022-08-17T01:15:37.352Z,6.20
2022-08-17T01:18:11.387Z,5.70
2022-08-17T01:20:48.966Z,5.23
2022-08-17T01:23:20.641Z,6.40
2022-08-17T01:25:56.279Z,5.30
2022-08-17T01:28:36.498Z,5.97
2022-08-17T01:31:13.637Z,5.50
2022-08-17T01:33:41.547Z,5.70
2022-08-17T01:36:09.244Z,5.90
2022-08-17T01:38:38.447Z,5.87
2022-08-17T01:41:16.468Z,5.70
2022-08-17T01:44:05.571Z,5.53
2022-08-17T01:46:37.431Z,6.03
2022-08-17T01:49:11.431Z,6.27
2022-08-17T01:51:39.371Z,5.63
2022-08-17T01:54:12.800Z,6.97
2022-08-17T01:56:47.398Z,6.40
2022-08-17T01:59:16.834Z,6.00
2022-08-17T02:01:44.887Z,6.30
2022-08-17T02:04:13.629Z,5.97
2022-08-17T02:06:52.959Z,5.80
2022-08-17T02:09:29.944Z,5.70
2022-08-17T02:11:59.947Z,5.93
2022-08-17T02:14:46.813Z,5.80
2022-08-17T02:17:13.989Z,5.87
2022-08-17T02:19:41.218Z,5.83
2022-08-17T02:22:08.626Z,5.17
2022-08-17T02:24:59.634Z,5.00
2022-08-17T02:27:24.831Z,4.33
2022-08-17T02:29:51.953Z,4.73
2022-08-17T02:32:27.975Z,5.10
2022-08-17T02:35:01.359Z,5.60
2022-08-17T02:37:29.871Z,4.67
2022-08-17T02:39:58.509Z,4.70
2022-08-17T02:42:31.508Z,5.10
2022-08-17T02:44:59.063Z,5.47
2022-08-17T02:47:26.843Z,5.17
2022-08-17T02:49:55.733Z,5.77
2022-08-17T02:52:42.926Z,5.23
2022-08-17T02:55:36.165Z,5.30
2022-08-17T02:58:03.680Z,5.63
2022-08-17T03:00:38.272Z,5.60
2022-08-17T03:03:06.238Z,5.33
2022-08-17T03:05:36.328Z,5.30
2022-08-17T03:08:05.216Z,5.67
2022-08-17T03:10:32.235Z,6.30
2022-08-17T03:12:59.701Z,6.30
2022-08-17T03:15:31.479Z,6.20
2022-08-17T03:17:59.924Z,5.90
2022-08-17T03:20:30.147Z,6.87
2022-08-17T03:23:01.807Z,6.47
2022-08-17T03:25:38.675Z,5.97
2022-08-17T03:28:06.423Z,6.40
2022-08-17T03:30:34.852Z,5.87
2022-08-17T03:33:04.724Z,6.90
2022-08-17T03:35:34.796Z,7.00
2022-08-17T03:38:01.769Z,6.67
2022-08-17T03:40:34.465Z,6.27
2022-08-17T03:43:19.059Z,5.90
2022-08-17T03:46:04.313Z,6.80
2022-08-17T03:48:51.337Z,6.30
2022-08-17T03:51:41.852Z,6.07
2022-08-17T03:54:29.013Z,6.13
2022-08-17T03:57:09.462Z,6.50
2022-08-17T03:59:37.806Z,6.17
2022-08-17T04:02:11.125Z,5.90
2022-08-17T04:04:39.024Z,6.43
2022-08-17T04:07:06.864Z,6.20
2022-08-17T04:09:34.037Z,6.13
2022-08-17T04:12:04.519Z,6.20
2022-08-17T04:14:39.352Z,5.10
2022-08-17T04:17:28.526Z,4.10
2022-08-17T04:19:56.392Z,4.50
2022-08-17T04:22:32.789Z,7.23
2022-08-17T04:25:06.285Z,6.70
2022-08-17T04:27:33.366Z,6.73
2022-08-17T04:30:00.940Z,6.10
2022-08-17T04:33:03.436Z,5.17
2022-08-17T04:35:20.190Z,5.47
2022-08-17T04:37:47.407Z,6.30
2022-08-17T04:40:32.668Z,6.47
2022-08-17T04:43:05.479Z,5.43
2022-08-17T04:45:33.076Z,6.87
2022-08-17T04:48:01.431Z,6.30
2022-08-17T04:50:28.418Z,5.47
2022-08-17T04:52:55.669Z,5.80
2022-08-17T04:55:22.927Z,7.10
2022-08-17T04:57:49.801Z,5.90
2022-08-17T05:00:16.864Z,4.87
2022-08-17T05:02:51.014Z,4.97
2022-08-17T05:05:40.177Z,5.87
2022-08-17T05:08:07.894Z,5.57
2022-08-17T05:10:37.481Z,5.10
2022-08-17T05:13:25.404Z,6.13
2022-08-17T05:15:59.874Z,6.30
2022-08-17T05:18:29.593Z,6.90
2022-08-17T05:20:57.320Z,5.60
2022-08-17T05:23:27.117Z,6.47
2022-08-17T05:26:04.094Z,5.23
2022-08-17T05:28:34.666Z,5.23
2022-08-17T05:31:03.726Z,5.30
2022-08-17T05:33:36.496Z,4.67
2022-08-17T05:36:09.164Z,6.43
2022-08-17T05:38:56.130Z,5.30
2022-08-17T05:41:23.101Z,5.67
2022-08-17T05:43:54.297Z,6.13
2022-08-17T05:46:27.836Z,7.63
2022-08-17T05:49:08.026Z,6.07
2022-08-17T05:51:55.712Z,6.70
2022-08-17T05:54:48.965Z,6.33
2022-08-17T05:57:43.550Z,7.97
2022-08-17T06:00:37.343Z,7.63
2022-08-17T06:03:30.080Z,7.57
2022-08-17T06:06:33.631Z,8.10
2022-08-17T06:09:30.107Z,8.20
2022-08-17T06:12:37.314Z,7.30
2022-08-17T06:15:26.226Z,6.40
2022-08-17T06:18:00.101Z,7.20
2022-08-17T06:20:36.095Z,7.90
2022-08-17T06:23:14.361Z,6.50
2022-08-17T06:25:48.831Z,6.37
2022-08-17T06:28:37.108Z,6.20
2022-08-17T06:31:15.334Z,5.53
2022-08-17T06:33:46.305Z,5.50
2022-08-17T06:37:03.624Z,6.30
2022-08-17T06:40:21.440Z,5.60
2022-08-17T06:43:13.608Z,7.30
2022-08-17T06:46:11.410Z,6.57
2022-08-17T06:48:57.870Z,6.60
2022-08-17T06:51:39.530Z,5.97
2022-08-17T06:54:20.554Z,7.93
2022-08-17T06:57:02.463Z,7.40
2022-08-17T06:59:54.936Z,7.07
2022-08-17T07:02:51.240Z,5.80
2022-08-17T07:05:34.365Z,6.83
2022-08-17T07:08:38.288Z,6.87
2022-08-17T07:11:48.274Z,7.50
2022-08-17T07:14:44.442Z,5.63
2022-08-17T07:17:15.856Z,5.77
2022-08-17T07:19:46.065Z,6.20
2022-08-17T07:22:59.554Z,6.40
2022-08-17T07:25:28.513Z,6.23
2022-08-17T07:28:00.190Z,5.13
2022-08-17T07:30:47.110Z,5.90
2022-08-17T07:33:20.275Z,5.30
2022-08-17T07:35:49.776Z,5.53
2022-08-17T07:38:24.800Z,5.40
2022-08-17T07:41:01.865Z,5.27
2022-08-17T07:43:39.813Z,5.97
2022-08-17T07:46:40.734Z,5.07
2022-08-17T07:49:10.371Z,4.87
2022-08-17T07:51:43.164Z,5.70
2022-08-17T07:54:15.557Z,5.50
2022-08-17T07:57:12.104Z,5.20
2022-08-17T08:00:12.682Z,5.30
2022-08-17T08:02:47.520Z,4.43
2022-08-17T08:05:44.316Z,5.27
2022-08-17T08:08:42.148Z,5.13
2022-08-17T08:11:15.729Z,5.20
2022-08-17T08:13:45.541Z,5.40
2022-08-17T08:16:21.983Z,5.70
2022-08-17T08:18:56.735Z,5.93
2022-08-17T08:21:52.100Z,5.43
2022-08-17T08:24:52.386Z,5.40
2022-08-17T08:27:34.036Z,6.70
2022-08-17T08:30:15.387Z,6.73
2022-08-17T08:33:29.973Z,6.37
2022-08-17T08:37:14.295Z,5.80
2022-08-17T08:39:56.884Z,5.70
2022-08-17T08:42:52.198Z,5.80
2022-08-17T08:46:01.753Z,6.13
2022-08-17T08:49:10.362Z,6.70
2022-08-17T08:52:00.582Z,6.23
2022-08-17T08:54:38.665Z,6.53
2022-08-17T08:57:26.739Z,6.70
2022-08-17T09:00:15.076Z,6.70
2022-08-17T09:03:02.543Z,5.30
2022-08-17T09:06:37.799Z,5.83
2022-08-17T09:09:29.191Z,5.70
2022-08-17T09:12:25.941Z,5.47
2022-08-17T09:15:13.100Z,6.30
2022-08-17T09:19:01.391Z,6.67
2022-08-17T09:21:01.622Z,7.17
2022-08-17T09:23:39.247Z,6.10
2022-08-17T09:26:25.690Z,14.73
2022-08-17T09:29:01.659Z,11.23
2022-08-17T09:32:03.502Z,6.40
2022-08-17T09:34:50.017Z,6.63
2022-08-17T09:37:29.737Z,5.90
2022-08-17T09:40:12.270Z,6.53
2022-08-17T09:43:09.840Z,6.50
2022-08-17T09:45:57.246Z,6.17
2022-08-17T09:48:50.160Z,7.43
2022-08-17T09:51:37.118Z,6.90
2022-08-17T09:54:37.992Z,6.37
2022-08-17T09:57:31.472Z,7.77
2022-08-17T10:00:11.269Z,7.87
2022-08-17T10:03:34.458Z,7.43
2022-08-17T10:06:22.091Z,7.57
2022-08-17T10:09:42.801Z,7.60
2022-08-17T10:12:30.171Z,6.47
2022-08-17T10:15:15.999Z,7.70
2022-08-17T10:18:08.949Z,8.67
2022-08-17T10:21:21.848Z,8.07
2022-08-17T10:24:25.007Z,7.27
2022-08-17T10:26:56.675Z,7.20
2022-08-17T10:29:51.565Z,6.93
2022-08-17T10:32:41.384Z,6.83
2022-08-17T10:35:39.051Z,6.67
2022-08-17T10:38:37.196Z,7.20
2022-08-17T10:41:29.438Z,7.27
2022-08-17T10:44:38.119Z,6.80
2022-08-17T10:47:15.032Z,7.30
2022-08-17T10:49:53.434Z,7.30
2022-08-17T10:52:20.199Z,7.20
2022-08-17T10:54:51.884Z,6.30
2022-08-17T10:57:33.915Z,6.87
2022-08-17T11:00:35.081Z,6.57
2022-08-17T11:03:02.523Z,7.37
2022-08-17T11:05:59.717Z,6.27
2022-08-17T11:08:52.537Z,6.87
2022-08-17T11:11:40.451Z,7.80
2022-08-17T11:14:57.933Z,8.83
2022-08-17T11:17:27.486Z,9.83
2022-08-17T11:20:20.079Z,6.60
2022-08-17T11:23:14.591Z,5.33
2022-08-17T11:25:50.344Z,5.40
2022-08-17T11:28:23.410Z,5.30
2022-08-17T11:30:58.857Z,4.27
2022-08-17T11:33:29.998Z,5.60
2022-08-17T11:36:31.530Z,4.70
2022-08-17T11:39:15.925Z,5.83
2022-08-17T11:42:11.807Z,5.63
2022-08-17T11:45:32.336Z,4.03
2022-08-17T11:48:48.310Z,5.13
2022-08-17T11:51:35.809Z,3.97
2022-08-17T11:54:34.164Z,3.90
2022-08-17T11:57:26.949Z,4.27
2022-08-17T12:00:10.804Z,4.10
2022-08-17T12:02:48.846Z,3.20
2022-08-17T12:05:19.333Z,3.63
2022-08-17T12:07:52.619Z,3.77
2022-08-17T12:10:31.825Z,4.60
2022-08-17T12:13:15.907Z,4.40
2022-08-17T12:15:49.923Z,3.90
2022-08-17T12:18:35.483Z,3.60
2022-08-17T12:21:25.343Z,4.40
2022-08-17T12:24:06.696Z,4.20
2022-08-17T12:26:36.759Z,2.97
2022-08-17T12:29:18.240Z,6.10
2022-08-17T12:32:03.107Z,7.93
2022-08-17T12:34:40.531Z,3.43
2022-08-17T12:37:23.133Z,4.20
2022-08-17T12:39:59.360Z,4.07
2022-08-17T12:42:37.389Z,2.93
2022-08-17T12:45:23.353Z,4.00
2022-08-17T12:48:07.793Z,3.77
2022-08-17T12:50:45.029Z,3.90
2022-08-17T12:53:16.203Z,4.20
2022-08-17T12:55:44.309Z,4.10
2022-08-17T12:58:14.659Z,4.27
2022-08-17T13:00:49.702Z,3.67
2022-08-17T13:03:22.737Z,3.97
2022-08-17T13:05:52.548Z,4.50
2022-08-17T13:08:30.539Z,3.57
2022-08-17T13:11:09.336Z,4.27
2022-08-17T13:13:49.023Z,4.03
2022-08-17T13:16:28.050Z,4.47
2022-08-17T13:19:08.583Z,3.73
2022-08-17T13:21:37.930Z,3.80
2022-08-17T13:24:16.583Z,4.53
2022-08-17T13:27:01.575Z,4.33
2022-08-17T13:29:45.739Z,3.93
2022-08-17T13:32:43.662Z,3.90
2022-08-17T13:35:43.615Z,4.00
2022-08-17T13:38:49.466Z,3.97
2022-08-17T13:41:37.850Z,4.50
2022-08-17T13:44:31.551Z,3.50
2022-08-17T13:46:59.611Z,4.90
2022-08-17T13:49:41.507Z,3.93
2022-08-17T13:52:40.187Z,3.10
2022-08-17T13:55:22.782Z,4.17
2022-08-17T13:58:03.589Z,4.00
2022-08-17T14:00:36.695Z,5.23
2022-08-17T14:03:05.715Z,4.63
2022-08-17T14:05:33.793Z,4.80
2022-08-17T14:08:06.995Z,4.00
2022-08-17T14:10:36.327Z,5.07
2022-08-17T14:13:04.623Z,4.67
2022-08-17T14:15:54.601Z,5.30
2022-08-17T14:18:35.611Z,4.73
2022-08-17T14:21:08.372Z,4.30
2022-08-17T14:23:36.881Z,4.10
2022-08-17T14:26:04.702Z,4.70
2022-08-17T14:28:32.052Z,5.10
2022-08-17T14:31:01.116Z,4.60
2022-08-17T14:33:29.007Z,5.33
2022-08-17T14:35:57.558Z,4.57
2022-08-17T14:38:24.828Z,4.63
2022-08-17T14:40:52.411Z,4.60
2022-08-17T14:43:20.398Z,4.80
2022-08-17T14:45:47.501Z,4.37
2022-08-17T14:48:14.476Z,3.80
2022-08-17T14:50:42.754Z,4.37
2022-08-17T14:53:13.821Z,4.03
2022-08-17T14:55:40.967Z,4.30
2022-08-17T14:58:09.078Z,3.93
2022-08-17T15:00:37.437Z,3.97
2022-08-17T15:03:05.307Z,4.93
2022-08-17T15:05:36.508Z,3.50
2022-08-17T15:08:05.413Z,3.87
2022-08-17T15:10:32.656Z,3.80
2022-08-17T15:13:00.386Z,3.30
2022-08-17T15:15:28.709Z,3.60
2022-08-17T15:17:56.253Z,4.70
2022-08-17T15:20:28.080Z,8.13
2022-08-17T15:22:57.486Z,6.40
2022-08-17T15:25:27.677Z,3.97
2022-08-17T15:27:55.842Z,3.60
2022-08-17T15:30:23.710Z,4.10
2022-08-17T15:32:54.269Z,4.17
2022-08-17T15:35:27.514Z,3.77
2022-08-17T15:38:10.790Z,3.73
2022-08-17T15:40:44.838Z,4.13
2022-08-17T15:43:24.790Z,3.90
2022-08-17T15:46:14.332Z,4.57
2022-08-17T15:48:44.464Z,4.37
2022-08-17T15:51:17.952Z,4.70
2022-08-17T15:54:04.610Z,4.60
2022-08-17T15:56:46.240Z,11.23
2022-08-17T15:59:13.253Z,8.73
2022-08-17T16:02:33.627Z,4.00
2022-08-17T16:04:30.918Z,3.87
2022-08-17T16:06:59.730Z,4.10
2022-08-17T16:09:27.502Z,4.83
2022-08-17T16:11:55.883Z,3.90
2022-08-17T16:14:33.654Z,3.27
2022-08-17T16:17:03.490Z,4.00
2022-08-17T16:19:30.907Z,3.97
2022-08-17T16:21:57.995Z,4.00
2022-08-17T16:24:25.298Z,3.93
2022-08-17T16:26:52.147Z,3.67
2022-08-17T16:29:19.051Z,4.00
2022-08-17T16:31:45.901Z,4.30
2022-08-17T16:34:17.044Z,3.80
2022-08-17T16:36:54.869Z,3.70
2022-08-17T16:39:27.598Z,3.63
2022-08-17T16:41:55.945Z,3.70
2022-08-17T16:44:23.143Z,3.60
2022-08-17T16:46:50.527Z,3.97
2022-08-17T16:49:35.658Z,3.77
2022-08-17T16:52:07.730Z,4.30
2022-08-17T16:54:35.415Z,4.30
2022-08-17T16:57:04.903Z,4.30
2022-08-17T16:59:40.800Z,4.10
2022-08-17T17:02:13.781Z,4.70
2022-08-17T17:04:50.329Z,4.80
2022-08-17T17:07:37.512Z,4.50
2022-08-17T17:10:17.284Z,5.00
2022-08-17T17:13:02.745Z,4.07
2022-08-17T17:15:51.886Z,5.10
2022-08-17T17:18:28.439Z,4.50
2022-08-17T17:20:57.399Z,5.20
2022-08-17T17:23:39.764Z,10.10
2022-08-17T17:26:43.176Z,6.90
2022-08-17T17:29:20.474Z,4.90
2022-08-17T17:32:13.561Z,5.10
2022-08-17T17:35:00.040Z,4.67
2022-08-17T17:37:33.533Z,4.77
2022-08-17T17:40:29.045Z,4.80
2022-08-17T17:43:09.476Z,4.60
2022-08-17T17:45:47.548Z,4.80
2022-08-17T17:48:14.398Z,4.63
2022-08-17T17:51:09.858Z,4.80
2022-08-17T17:53:51.744Z,4.37
2022-08-17T17:56:43.248Z,4.50
2022-08-17T17:59:41.845Z,4.93
2022-08-17T18:02:52.241Z,5.20
2022-08-17T18:05:37.340Z,5.00
2022-08-17T18:08:14.110Z,5.03
2022-08-17T18:10:55.649Z,5.03
2022-08-17T18:14:02.989Z,4.57
2022-08-17T18:16:32.917Z,5.60
2022-08-17T18:19:00.434Z,4.93
2022-08-17T18:21:44.344Z,5.13
2022-08-17T18:24:12.598Z,4.50
2022-08-17T18:26:55.487Z,5.00
2022-08-17T18:29:34.448Z,5.20
2022-08-17T18:32:31.837Z,5.00
2022-08-17T18:35:10.754Z,5.40
2022-08-17T18:38:20.394Z,5.30
2022-08-17T18:41:02.941Z,5.13
2022-08-17T18:43:53.210Z,5.77
2022-08-17T18:46:36.709Z,5.70
2022-08-17T18:49:28.732Z,5.50
2022-08-17T18:52:30.567Z,5.20
2022-08-17T18:55:24.125Z,5.40
2022-08-17T18:57:56.193Z,5.40
2022-08-17T19:00:43.824Z,5.40
2022-08-17T19:03:17.847Z,5.73
2022-08-17T19:05:53.080Z,5.77
2022-08-17T19:08:29.006Z,6.20
2022-08-17T19:10:59.793Z,5.90
2022-08-17T19:13:47.454Z,5.70
2022-08-17T19:16:51.319Z,5.10
2022-08-17T19:19:46.548Z,5.07
2022-08-17T19:22:31.008Z,5.10
2022-08-17T19:25:12.646Z,4.97
2022-08-17T19:28:04.011Z,5.63
2022-08-17T19:30:39.501Z,5.20
2022-08-17T19:33:10.496Z,4.97
2022-08-17T19:36:10.565Z,4.83
2022-08-17T19:39:17.413Z,5.90
2022-08-17T19:42:28.361Z,5.33
2022-08-17T19:45:08.577Z,5.50
2022-08-17T19:48:04.327Z,6.60
2022-08-17T19:50:50.459Z,6.47
2022-08-17T19:53:54.145Z,5.53
2022-08-17T19:56:57.863Z,6.97
2022-08-17T19:59:37.458Z,6.33
2022-08-17T20:02:22.761Z,5.63
2022-08-17T20:04:53.499Z,6.77
2022-08-17T20:07:46.447Z,6.27
2022-08-17T20:10:48.102Z,6.00
2022-08-17T20:13:33.673Z,6.37
2022-08-17T20:16:02.998Z,6.00
2022-08-17T20:19:03.971Z,7.50
2022-08-17T20:21:54.384Z,6.40
2022-08-17T20:24:37.179Z,5.80
2022-08-17T20:27:31.297Z,6.80
2022-08-17T20:30:06.236Z,6.10
2022-08-17T20:32:55.532Z,5.80
2022-08-17T20:36:11.181Z,6.70
2022-08-17T20:38:44.824Z,6.20
2022-08-17T20:41:28.119Z,7.00
2022-08-17T20:43:58.705Z,6.90
2022-08-17T20:46:37.529Z,6.50
2022-08-17T20:49:41.221Z,6.00
2022-08-17T20:52:35.451Z,6.27
2022-08-17T20:55:04.474Z,5.80
2022-08-17T20:57:31.561Z,5.60
2022-08-17T21:00:17.492Z,5.90
2022-08-17T21:02:49.519Z,6.50
2022-08-17T21:06:17.054Z,6.07
2022-08-17T21:08:57.824Z,5.90
2022-08-17T21:11:56.793Z,6.70
2022-08-17T21:14:40.189Z,7.10
2022-08-17T21:17:18.773Z,5.97
2022-08-17T21:20:22.792Z,6.80
2022-08-17T21:23:21.772Z,5.90
2022-08-17T21:26:50.582Z,5.80
2022-08-17T21:29:31.359Z,5.30
2022-08-17T21:32:06.191Z,5.60
2022-08-17T21:34:42.536Z,6.03
2022-08-17T21:37:29.382Z,6.47
2022-08-17T21:40:10.092Z,6.40
2022-08-17T21:42:47.667Z,6.60
2022-08-17T21:45:32.263Z,6.67
2022-08-17T21:48:19.602Z,6.00
2022-08-17T21:51:12.038Z,6.80
2022-08-17T21:53:54.187Z,6.70
2022-08-17T21:56:32.008Z,6.67
2022-08-17T21:59:05.541Z,6.20
2022-08-17T22:01:42.943Z,6.57
2022-08-17T22:04:12.690Z,7.03
2022-08-17T22:06:52.349Z,7.00
2022-08-17T22:09:49.917Z,6.53
2022-08-17T22:12:20.348Z,6.30
2022-08-17T22:14:57.421Z,6.47
2022-08-17T22:17:28.205Z,5.77
2022-08-17T22:20:21.521Z,6.40
2022-08-17T22:23:07.146Z,5.90
2022-08-17T22:25:41.813Z,6.57
2022-08-17T22:28:12.097Z,7.13
2022-08-17T22:30:59.869Z,7.00
2022-08-17T22:33:51.621Z,7.47
2022-08-17T22:36:29.513Z,7.30
2022-08-17T22:39:26.309Z,6.73
2022-08-17T22:41:57.109Z,5.63
2022-08-17T22:44:31.875Z,6.30
2022-08-17T22:47:11.336Z,5.83
2022-08-17T22:50:00.991Z,6.40
2022-08-17T22:53:21.269Z,6.53
2022-08-17T22:56:16.226Z,5.90
2022-08-17T22:59:14.814Z,5.90
2022-08-17T23:01:45.327Z,5.73
2022-08-17T23:04:36.215Z,5.60
2022-08-17T23:07:03.125Z,5.77
2022-08-17T23:09:29.982Z,6.13
2022-08-17T23:11:58.656Z,5.97
2022-08-17T23:14:31.578Z,5.30
2022-08-17T23:16:59.341Z,5.40
2022-08-17T23:19:27.539Z,5.97
2022-08-17T23:21:56.471Z,6.00
2022-08-17T23:24:29.422Z,6.37
2022-08-17T23:26:58.051Z,6.30
2022-08-17T23:29:29.134Z,5.50
2022-08-17T23:31:59.748Z,5.30
2022-08-17T23:34:28.007Z,6.30
2022-08-17T23:36:55.955Z,5.60
2022-08-17T23:39:24.727Z,5.63
2022-08-17T23:41:58.054Z,5.70
2022-08-17T23:44:26.047Z,5.20
2022-08-17T23:46:53.743Z,6.40
2022-08-17T23:49:20.758Z,5.33
2022-08-17T23:51:48.862Z,5.30
2022-08-17T23:54:43.483Z,5.87
2022-08-17T23:57:13.648Z,5.57
2022-08-17T23:59:40.854Z,4.60
